createdAt,value
2022-10-28T00:01:25.811Z,101796.16
2022-10-28T00:03:57.273Z,101797.16
2022-10-28T00:06:28.731Z,101788.78
2022-10-28T00:08:55.834Z,101785.06
2022-10-28T00:11:25.508Z,101791.97
2022-10-28T00:13:56.812Z,101797.59
2022-10-28T00:16:28.305Z,101808.06
2022-10-28T00:18:55.248Z,101797.00
2022-10-28T00:21:24.608Z,101795.47
2022-10-28T00:23:51.242Z,101798.78
2022-10-28T00:26:22.797Z,101798.69
2022-10-28T00:28:51.221Z,101792.97
2022-10-28T00:31:20.979Z,101798.03
2022-10-28T00:33:47.724Z,101786.03
2022-10-28T00:36:17.041Z,101785.94
2022-10-28T00:38:44.977Z,101788.81
2022-10-28T00:41:13.500Z,101788.09
2022-10-28T00:43:42.866Z,101776.53
2022-10-28T00:46:25.583Z,101768.47
2022-10-28T00:48:59.633Z,101790.31
2022-10-28T00:51:26.599Z,101783.19
2022-10-28T00:53:54.271Z,101780.25
2022-10-28T00:56:21.109Z,101773.53
2022-10-28T00:58:48.691Z,101774.00
2022-10-28T01:01:15.138Z,101776.53
2022-10-28T01:03:41.585Z,101770.25
2022-10-28T01:06:08.570Z,101757.22
2022-10-28T01:08:35.041Z,101763.69
2022-10-28T01:11:16.568Z,101760.94
2022-10-28T01:14:00.208Z,101763.25
2022-10-28T01:16:34.432Z,101767.88
2022-10-28T01:19:05.936Z,101754.34
2022-10-28T01:21:54.391Z,101749.06
2022-10-28T01:24:52.825Z,101763.94
2022-10-28T01:27:38.115Z,101742.88
2022-10-28T01:30:14.832Z,101732.28
2022-10-28T01:33:14.957Z,101736.91
2022-10-28T01:35:52.711Z,101718.94
2022-10-28T01:38:33.307Z,101727.00
2022-10-28T01:41:16.591Z,101723.72
2022-10-28T01:44:21.675Z,101717.75
2022-10-28T01:46:56.392Z,101713.06
2022-10-28T01:49:26.240Z,101703.16
2022-10-28T01:51:59.713Z,101718.25
2022-10-28T01:54:28.094Z,101710.69
2022-10-28T01:56:56.681Z,101720.41
2022-10-28T01:59:25.756Z,101727.16
2022-10-28T02:01:52.321Z,101730.16
2022-10-28T02:04:18.831Z,101721.78
2022-10-28T02:06:48.554Z,101721.78
2022-10-28T02:09:38.066Z,101727.00
2022-10-28T02:16:05.166Z,101739.59
2022-10-28T02:18:43.387Z,101724.88
2022-10-28T02:21:21.545Z,101722.31
2022-10-28T02:24:27.365Z,101715.91
2022-10-28T02:27:04.977Z,101712.78
2022-10-28T02:29:37.541Z,101706.00
2022-10-28T02:32:16.117Z,101685.59
2022-10-28T02:34:46.565Z,101691.59
2022-10-28T02:37:22.620Z,101694.41
2022-10-28T02:39:52.435Z,101687.97
2022-10-28T02:42:24.126Z,101682.81
2022-10-28T02:44:56.404Z,101678.31
2022-10-28T02:47:26.888Z,101680.66
2022-10-28T02:49:57.098Z,101685.50
2022-10-28T02:52:25.725Z,101662.28
2022-10-28T02:54:59.799Z,101679.66
2022-10-28T02:57:28.660Z,101670.31
2022-10-28T02:59:58.042Z,101663.66
2022-10-28T03:02:25.058Z,101658.84
2022-10-28T03:04:51.581Z,101660.94
2022-10-28T03:07:18.325Z,101646.00
2022-10-28T03:09:44.752Z,101647.13
2022-10-28T03:12:11.418Z,101645.84
2022-10-28T03:14:38.541Z,101652.44
2022-10-28T03:17:04.996Z,101649.16
2022-10-28T03:19:31.405Z,101648.13
2022-10-28T03:21:57.858Z,101649.63
2022-10-28T03:24:24.350Z,101650.19
2022-10-28T03:26:50.922Z,101649.69
2022-10-28T03:29:17.425Z,101653.19
2022-10-28T03:31:43.924Z,101641.44
2022-10-28T03:34:10.333Z,101637.44
2022-10-28T03:36:36.772Z,101648.41
2022-10-28T03:39:03.314Z,101655.84
2022-10-28T03:41:29.943Z,101656.19
2022-10-28T03:43:56.670Z,101633.50
2022-10-28T03:46:23.442Z,101646.72
2022-10-28T03:48:50.003Z,101643.56
2022-10-28T03:51:16.421Z,101644.81
2022-10-28T03:53:42.909Z,101641.25
2022-10-28T03:56:09.534Z,101641.16
2022-10-28T03:58:38.784Z,101634.31
2022-10-28T04:01:08.451Z,101627.25
2022-10-28T04:03:35.115Z,101634.22
2022-10-28T04:06:01.493Z,101639.31
2022-10-28T04:08:28.122Z,101631.44
2022-10-28T04:10:54.687Z,101631.69
2022-10-28T04:13:21.327Z,101632.13
2022-10-28T04:15:47.730Z,101625.84
2022-10-28T04:18:14.160Z,101629.53
2022-10-28T04:20:40.760Z,101634.06
2022-10-28T04:23:07.612Z,101634.44
2022-10-28T04:25:34.395Z,101631.22
2022-10-28T04:28:01.033Z,101625.94
2022-10-28T04:30:27.870Z,101637.31
2022-10-28T04:32:56.226Z,101638.31
2022-10-28T04:35:23.681Z,101638.47
2022-10-28T04:37:50.266Z,101627.06
2022-10-28T04:40:18.853Z,101630.28
2022-10-28T04:42:49.502Z,101627.44
2022-10-28T04:45:17.753Z,101616.91
2022-10-28T04:47:44.534Z,101619.44
2022-10-28T04:50:11.282Z,101618.69
2022-10-28T04:52:40.208Z,101622.66
2022-10-28T04:55:08.389Z,101615.09
2022-10-28T04:57:34.917Z,101613.00
2022-10-28T05:00:01.681Z,101617.91
2022-10-28T05:02:29.335Z,101616.69
2022-10-28T05:05:11.529Z,101604.38
2022-10-28T05:07:45.377Z,101604.97
2022-10-28T05:10:20.490Z,101592.56
2022-10-28T05:13:01.537Z,101598.66
2022-10-28T05:15:28.575Z,101612.59
2022-10-28T05:17:56.198Z,101613.69
2022-10-28T05:20:31.658Z,101611.00
2022-10-28T05:23:02.593Z,101601.88
2022-10-28T05:25:30.404Z,101593.34
2022-10-28T05:34:13.704Z,101590.03
2022-10-28T05:37:16.408Z,101579.13
2022-10-28T05:40:10.177Z,101584.72
2022-10-28T05:42:47.822Z,101582.16
2022-10-28T05:48:29.033Z,101582.16
2022-10-28T05:51:01.609Z,101582.81
2022-10-28T05:56:32.163Z,101584.72
2022-10-28T06:02:28.548Z,101579.56
2022-10-28T06:04:59.586Z,101573.34
2022-10-28T06:07:26.182Z,101577.03
2022-10-28T06:09:53.227Z,101584.81
2022-10-28T06:12:18.174Z,101575.69
2022-10-28T06:14:50.651Z,101578.56
2022-10-28T06:17:17.735Z,101590.09
2022-10-28T06:19:48.427Z,101587.94
2022-10-28T06:22:36.164Z,101580.34
2022-10-28T06:25:13.889Z,101596.81
2022-10-28T06:28:12.158Z,101599.94
2022-10-28T06:31:14.949Z,101600.59
2022-10-28T06:34:02.306Z,101591.84
2022-10-28T06:36:31.721Z,101595.31
2022-10-28T06:39:05.156Z,101595.19
2022-10-28T06:41:54.761Z,101598.16
2022-10-28T06:44:25.139Z,101608.47
2022-10-28T06:46:55.605Z,101608.06
2022-10-28T06:49:25.642Z,101602.19
2022-10-28T06:51:54.219Z,101602.06
2022-10-28T06:54:22.934Z,101601.31
2022-10-28T06:57:01.670Z,101614.44
2022-10-28T06:59:37.323Z,101603.75
2022-10-28T07:02:04.755Z,101622.00
2022-10-28T07:04:33.006Z,101607.28
2022-10-28T07:07:06.522Z,101613.63
2022-10-28T07:09:40.342Z,101605.56
2022-10-28T07:12:38.980Z,101621.50
2022-10-28T07:15:14.124Z,101609.59
2022-10-28T07:17:49.608Z,101628.09
2022-10-28T07:20:18.995Z,101601.47
2022-10-28T07:22:48.192Z,101613.84
2022-10-28T07:25:15.022Z,101623.63
2022-10-28T07:30:38.759Z,101619.69
2022-10-28T07:33:19.920Z,101619.94
2022-10-28T07:35:53.419Z,101613.69
2022-10-28T07:41:13.235Z,101617.09
2022-10-28T07:43:51.542Z,101625.59
2022-10-28T07:49:28.229Z,101622.56
2022-10-28T07:59:49.842Z,101627.84
2022-10-28T08:05:34.275Z,101632.66
2022-10-28T08:08:10.010Z,101626.16
2022-10-28T08:13:43.644Z,101625.22
2022-10-28T08:16:26.697Z,101639.00
2022-10-28T08:19:12.301Z,101627.59
2022-10-28T08:21:44.673Z,101632.16
2022-10-28T08:24:34.892Z,101616.13
2022-10-28T08:27:01.956Z,101624.19
2022-10-28T08:32:27.551Z,101625.91
2022-10-28T08:37:56.385Z,101608.59
2022-10-28T08:40:33.077Z,101613.13
2022-10-28T08:43:30.377Z,101624.88
2022-10-28T08:47:15.574Z,101617.16
2022-10-28T08:52:48.838Z,101624.66
2022-10-28T08:55:39.647Z,101609.78
2022-10-28T08:58:32.742Z,101604.81
2022-10-28T09:01:01.628Z,101613.25
2022-10-28T09:03:39.247Z,101623.88
2022-10-28T09:06:10.998Z,101617.84
2022-10-28T09:08:41.548Z,101619.16
2022-10-28T09:11:26.272Z,101616.97
2022-10-28T09:14:09.687Z,101617.97
2022-10-28T09:16:49.614Z,101616.78
2022-10-28T09:19:38.684Z,101620.81
2022-10-28T09:22:10.985Z,101620.25
2022-10-28T09:25:05.227Z,101619.09
2022-10-28T09:27:43.256Z,101628.75
2022-10-28T09:30:27.142Z,101616.97
2022-10-28T09:33:06.845Z,101615.13
2022-10-28T09:35:43.217Z,101606.63
2022-10-28T09:38:24.164Z,101616.81
2022-10-28T09:41:11.921Z,101612.78
2022-10-28T09:46:40.884Z,101619.22
2022-10-28T09:49:39.740Z,101622.72
2022-10-28T09:52:18.920Z,101615.69
2022-10-28T09:54:52.916Z,101621.91
2022-10-28T09:57:27.370Z,101609.06
2022-10-28T09:59:55.634Z,101608.84
2022-10-28T10:02:29.718Z,101608.38
2022-10-28T10:04:57.105Z,101609.25
2022-10-28T10:07:35.217Z,101609.09
2022-10-28T10:10:09.137Z,101603.25
2022-10-28T10:12:42.068Z,101604.84
2022-10-28T10:15:18.216Z,101607.69
2022-10-28T10:17:48.282Z,101610.75
2022-10-28T10:20:23.369Z,101615.50
2022-10-28T10:22:51.843Z,101614.34
2022-10-28T10:25:18.873Z,101610.16
2022-10-28T10:28:08.783Z,101619.56
2022-10-28T10:30:46.796Z,101609.09
2022-10-28T10:33:26.753Z,101612.03
2022-10-28T10:36:18.446Z,101610.31
2022-10-28T10:39:00.668Z,101607.94
2022-10-28T10:41:40.635Z,101622.09
2022-10-28T10:44:22.822Z,101623.38
2022-10-28T10:47:05.980Z,101615.72
2022-10-28T10:49:38.499Z,101614.00
2022-10-28T10:52:10.980Z,101605.38
2022-10-28T10:54:40.712Z,101601.25
2022-10-28T10:57:21.330Z,101608.31
2022-10-28T10:59:53.833Z,101604.78
2022-10-28T11:02:30.928Z,101602.56
2022-10-28T11:05:09.363Z,101603.34
2022-10-28T11:07:45.671Z,101614.97
2022-10-28T11:10:33.531Z,101605.34
2022-10-28T11:13:09.289Z,101597.94
2022-10-28T11:15:39.406Z,101602.88
2022-10-28T11:18:08.917Z,101608.53
2022-10-28T11:20:56.848Z,101597.84
2022-10-28T11:23:35.870Z,101605.81
2022-10-28T11:26:06.970Z,101599.31
2022-10-28T11:29:01.423Z,101597.84
2022-10-28T11:31:46.330Z,101602.38
2022-10-28T11:34:26.820Z,101583.06
2022-10-28T11:37:15.170Z,101585.03
2022-10-28T11:40:18.630Z,101572.06
2022-10-28T11:43:03.518Z,101578.44
2022-10-28T11:46:05.368Z,101574.66
2022-10-28T11:48:58.932Z,101577.25
2022-10-28T11:51:51.445Z,101576.44
2022-10-28T11:54:32.519Z,101573.97
2022-10-28T11:57:04.096Z,101570.66
2022-10-28T11:59:59.223Z,101569.91
2022-10-28T12:02:53.342Z,101576.22
2022-10-28T12:05:45.396Z,101571.34
2022-10-28T12:08:43.930Z,101564.88
2022-10-28T12:11:29.480Z,101562.13
2022-10-28T12:14:18.624Z,101564.63
2022-10-28T12:17:05.589Z,101566.63
2022-10-28T12:19:43.159Z,101553.72
2022-10-28T12:22:19.841Z,101552.78
2022-10-28T12:24:50.054Z,101551.03
2022-10-28T12:27:26.334Z,101552.78
2022-10-28T12:29:56.333Z,101541.38
2022-10-28T12:32:30.370Z,101548.56
2022-10-28T12:35:12.080Z,101545.03
2022-10-28T12:38:06.332Z,101540.56
2022-10-28T12:40:39.850Z,101547.25
2022-10-28T12:43:30.115Z,101540.09
2022-10-28T12:45:57.159Z,101542.03
2022-10-28T12:48:46.457Z,101548.25
2022-10-28T12:51:40.401Z,101554.47
2022-10-28T12:54:21.921Z,101539.88
2022-10-28T12:56:56.580Z,101536.63
2022-10-28T12:59:44.617Z,101533.88
2022-10-28T13:02:20.122Z,101543.34
2022-10-28T13:04:46.795Z,101536.16
2022-10-28T13:07:34.322Z,101527.25
2022-10-28T13:10:18.046Z,101540.66
2022-10-28T13:13:08.083Z,101531.25
2022-10-28T13:15:59.032Z,101521.81
2022-10-28T13:18:38.973Z,101519.59
2022-10-28T13:21:12.687Z,101505.97
2022-10-28T13:24:12.548Z,101501.75
2022-10-28T13:26:42.831Z,101498.75
2022-10-28T13:29:20.761Z,101505.00
2022-10-28T13:31:48.034Z,101518.84
2022-10-28T13:34:16.848Z,101520.34
2022-10-28T13:36:57.333Z,101528.03
2022-10-28T13:39:31.689Z,101525.56
2022-10-28T13:42:13.633Z,101521.09
2022-10-28T13:44:53.028Z,101519.59
2022-10-28T13:47:31.143Z,101516.88
2022-10-28T13:50:07.577Z,101510.47
2022-10-28T13:52:45.759Z,101496.81
2022-10-28T13:55:43.825Z,101490.84
2022-10-28T13:58:26.394Z,101490.84
2022-10-28T14:00:55.908Z,101498.28
2022-10-28T14:03:25.538Z,101496.31
2022-10-28T14:05:57.814Z,101494.34
2022-10-28T14:08:24.629Z,101492.34
2022-10-28T14:11:22.566Z,101486.63
2022-10-28T14:14:02.537Z,101481.41
2022-10-28T14:16:37.264Z,101488.38
2022-10-28T14:19:10.801Z,101477.19
2022-10-28T14:21:45.581Z,101479.19
2022-10-28T14:24:15.371Z,101477.66
2022-10-28T14:27:41.174Z,101488.06
2022-10-28T14:30:21.799Z,101485.81
2022-10-28T14:32:49.567Z,101488.06
2022-10-28T14:35:17.563Z,101488.06
2022-10-28T14:38:17.671Z,101489.75
2022-10-28T14:40:50.817Z,101487.78
2022-10-28T14:43:59.566Z,101481.81
2022-10-28T14:46:33.926Z,101484.19
2022-10-28T14:49:04.309Z,101480.75
2022-10-28T14:51:47.746Z,101482.69
2022-10-28T14:54:40.902Z,101477.91
2022-10-28T14:57:08.232Z,101490.94
2022-10-28T14:59:43.271Z,101477.31
2022-10-28T15:02:15.951Z,101488.66
2022-10-28T15:04:45.058Z,101489.66
2022-10-28T15:07:14.160Z,101486.63
2022-10-28T15:09:43.352Z,101478.13
2022-10-28T15:12:17.247Z,101480.41
2022-10-28T15:14:52.248Z,101479.59
2022-10-28T15:17:27.450Z,101478.13
2022-10-28T15:19:56.186Z,101480.91
2022-10-28T15:22:29.015Z,101481.75
2022-10-28T15:25:06.535Z,101485.81
2022-10-28T15:27:35.059Z,101488.53
2022-10-28T15:30:03.221Z,101489.56
2022-10-28T15:32:34.751Z,101486.53
2022-10-28T15:35:30.567Z,101495.75
2022-10-28T15:38:00.258Z,101482.44
2022-10-28T15:40:34.402Z,101484.72
2022-10-28T15:43:01.271Z,101494.25
2022-10-28T15:45:33.822Z,101499.13
2022-10-28T15:48:10.843Z,101497.84
2022-10-28T15:50:37.459Z,101491.53
2022-10-28T15:53:10.023Z,101501.06
2022-10-28T15:58:35.769Z,101497.06
2022-10-28T16:01:02.563Z,101494.63
2022-10-28T16:03:40.920Z,101491.72
2022-10-28T16:06:21.263Z,101512.09
2022-10-28T16:08:48.193Z,101511.50
2022-10-28T16:11:18.972Z,101510.94
2022-10-28T16:13:48.105Z,101510.94
2022-10-28T16:16:35.854Z,101527.84
2022-10-28T16:19:10.586Z,101535.22
2022-10-28T16:21:40.767Z,101530.00
2022-10-28T16:24:09.206Z,101535.09
2022-10-28T16:26:35.666Z,101539.56
2022-10-28T16:29:02.181Z,101537.69
2022-10-28T16:31:30.736Z,101538.88
2022-10-28T16:33:58.380Z,101542.72
2022-10-28T16:36:26.401Z,101539.75
2022-10-28T16:39:01.692Z,101539.13
2022-10-28T16:41:28.864Z,101542.47
2022-10-28T16:43:56.156Z,101542.22
2022-10-28T16:46:22.679Z,101536.41
2022-10-28T16:48:49.072Z,101547.41
2022-10-28T16:51:17.536Z,101560.34
2022-10-28T16:53:47.496Z,101547.06
2022-10-28T16:56:17.679Z,101556.66
2022-10-28T16:58:44.168Z,101551.00
2022-10-28T17:01:11.355Z,101559.13
2022-10-28T17:03:37.878Z,101557.47
2022-10-28T17:06:04.391Z,101563.31
2022-10-28T17:09:00.735Z,101565.75
2022-10-28T17:11:18.983Z,101571.16
2022-10-28T17:13:45.494Z,101577.78
2022-10-28T17:16:12.947Z,101563.66
2022-10-28T17:18:39.479Z,101576.53
2022-10-28T17:21:06.193Z,101573.56
2022-10-28T17:23:32.602Z,101567.06
2022-10-28T17:26:01.979Z,101578.41
2022-10-28T17:28:28.927Z,101577.84
2022-10-28T17:31:05.672Z,101577.69
2022-10-28T17:33:32.311Z,101576.72
2022-10-28T17:36:07.825Z,101593.97
2022-10-28T17:38:34.499Z,101599.88
2022-10-28T17:41:00.928Z,101580.91
2022-10-28T17:43:28.354Z,101595.69
2022-10-28T17:46:04.133Z,101593.16
2022-10-28T17:48:30.579Z,101604.28
2022-10-28T17:50:57.316Z,101617.56
2022-10-28T17:53:24.127Z,101596.44
2022-10-28T17:56:04.018Z,101609.16
2022-10-28T17:58:30.722Z,101618.22
2022-10-28T18:01:05.302Z,101616.63
2022-10-28T18:03:38.155Z,101615.03
2022-10-28T18:06:07.263Z,101629.25
2022-10-28T18:08:34.946Z,101623.53
2022-10-28T18:11:01.500Z,101618.91
2022-10-28T18:13:32.592Z,101625.78
2022-10-28T18:16:13.874Z,101635.31
2022-10-28T18:18:42.540Z,101627.75
2022-10-28T18:21:11.108Z,101630.72
2022-10-28T18:23:37.856Z,101628.13
2022-10-28T18:26:06.388Z,101638.22
2022-10-28T18:28:34.850Z,101646.47
2022-10-28T18:31:05.983Z,101655.72
2022-10-28T18:33:33.488Z,101663.84
2022-10-28T18:36:07.004Z,101669.56
2022-10-28T18:38:33.966Z,101666.19
2022-10-28T18:41:00.376Z,101644.03
2022-10-28T18:43:26.924Z,101656.19
2022-10-28T18:45:53.462Z,101658.72
2022-10-28T18:48:19.917Z,101660.00
2022-10-28T18:50:57.193Z,101681.34
2022-10-28T18:53:23.905Z,101688.34
2022-10-28T18:55:50.540Z,101684.50
2022-10-28T18:58:17.381Z,101693.09
2022-10-28T19:00:43.808Z,101709.56
2022-10-28T19:03:21.303Z,101702.44
2022-10-28T19:05:48.060Z,101709.69
2022-10-28T19:08:14.839Z,101704.63
2022-10-28T19:10:41.636Z,101706.47
2022-10-28T19:13:08.059Z,101715.69
2022-10-28T19:15:40.010Z,101705.78
2022-10-28T19:18:06.496Z,101713.13
2022-10-28T19:20:32.946Z,101725.75
2022-10-28T19:22:59.777Z,101738.44
2022-10-28T19:25:26.331Z,101717.06
2022-10-28T19:27:52.721Z,101717.16
2022-10-28T19:30:19.211Z,101735.19
2022-10-28T19:32:45.637Z,101748.59
2022-10-28T19:35:12.023Z,101742.50
2022-10-28T19:37:38.675Z,101740.63
2022-10-28T19:40:05.500Z,101744.75
2022-10-28T19:42:31.920Z,101757.72
2022-10-28T19:45:00.860Z,101756.75
2022-10-28T19:47:27.713Z,101751.22
2022-10-28T19:49:54.158Z,101752.94
2022-10-28T19:52:20.562Z,101751.78
2022-10-28T19:54:46.973Z,101762.91
2022-10-28T19:59:44.828Z,101764.84
2022-10-28T20:02:11.809Z,101763.53
2022-10-28T20:04:39.318Z,101769.28
2022-10-28T20:07:05.760Z,101783.59
2022-10-28T20:09:32.235Z,101800.19
2022-10-28T20:11:58.723Z,101809.44
2022-10-28T20:14:25.245Z,101813.44
2022-10-28T20:16:51.767Z,101823.88
2022-10-28T20:19:18.226Z,101822.38
2022-10-28T20:21:45.170Z,101805.28
2022-10-28T20:24:11.565Z,101813.78
2022-10-28T20:26:38.485Z,101803.03
2022-10-28T20:29:06.986Z,101799.53
2022-10-28T20:31:33.970Z,101796.47
2022-10-28T20:34:03.873Z,101807.63
2022-10-28T20:36:34.411Z,101815.16
2022-10-28T20:39:08.832Z,101814.09
2022-10-28T20:41:36.886Z,101820.69
2022-10-28T20:44:04.950Z,101818.47
2022-10-28T20:46:32.305Z,101830.75
2022-10-28T20:49:00.778Z,101830.75
2022-10-28T20:51:29.370Z,101847.03
2022-10-28T20:53:55.902Z,101841.31
2022-10-28T20:56:25.735Z,101819.66
2022-10-28T20:58:53.407Z,101845.38
2022-10-28T21:01:34.589Z,101846.41
2022-10-28T21:04:03.364Z,101853.31
2022-10-28T21:06:30.765Z,101861.44
2022-10-28T21:08:57.527Z,101868.06
2022-10-28T21:11:25.204Z,101857.97
2022-10-28T21:13:57.957Z,101863.22
2022-10-28T21:16:25.031Z,101869.13
2022-10-28T21:18:52.125Z,101857.22
2022-10-28T21:21:19.658Z,101877.69
2022-10-28T21:23:46.301Z,101870.47
2022-10-28T21:26:13.267Z,101871.03
2022-10-28T21:28:42.727Z,101874.09
2022-10-28T21:31:13.993Z,101873.19
2022-10-28T21:33:41.482Z,101864.72
2022-10-28T21:36:11.472Z,101880.81
2022-10-28T21:38:37.903Z,101882.59
2022-10-28T21:41:11.293Z,101885.31
2022-10-28T21:43:39.934Z,101884.22
2022-10-28T21:46:07.175Z,101881.09
2022-10-28T21:48:35.169Z,101885.16
2022-10-28T21:51:06.310Z,101881.25
2022-10-28T21:53:37.345Z,101877.59
2022-10-28T21:56:12.457Z,101884.84
2022-10-28T21:58:43.303Z,101880.03
2022-10-28T22:01:14.909Z,101874.00
2022-10-28T22:03:41.714Z,101886.31
2022-10-28T22:06:08.780Z,101887.94
2022-10-28T22:08:35.552Z,101881.03
2022-10-28T22:11:12.693Z,101881.94
2022-10-28T22:13:39.268Z,101886.88
2022-10-28T22:16:07.921Z,101889.09
2022-10-28T22:18:36.319Z,101882.38
2022-10-28T22:21:16.340Z,101894.66
2022-10-28T22:23:43.055Z,101887.16
2022-10-28T22:26:11.996Z,101868.31
2022-10-28T22:28:38.996Z,101870.44
2022-10-28T22:31:07.870Z,101880.34
2022-10-28T22:33:34.692Z,101878.63
2022-10-28T22:36:03.494Z,101874.13
2022-10-28T22:38:30.080Z,101892.94
2022-10-28T22:41:12.008Z,101906.97
2022-10-28T22:43:38.880Z,101897.44
2022-10-28T22:46:06.159Z,101892.19
2022-10-28T22:48:33.273Z,101906.03
2022-10-28T22:50:59.902Z,101886.72
2022-10-28T22:53:26.771Z,101889.13
2022-10-28T22:55:53.781Z,101897.84
2022-10-28T22:58:20.939Z,101891.91
2022-10-28T23:00:47.491Z,101894.97
2022-10-28T23:03:14.453Z,101907.09
2022-10-28T23:05:41.397Z,101906.94
2022-10-28T23:08:15.683Z,101897.94
2022-10-28T23:10:42.252Z,101903.22
2022-10-28T23:13:11.726Z,101902.97
2022-10-28T23:15:38.177Z,101900.53
2022-10-28T23:18:04.618Z,101908.13
2022-10-28T23:20:31.068Z,101907.97
2022-10-28T23:22:57.551Z,101912.25
2022-10-28T23:25:24.028Z,101913.00
2022-10-28T23:27:50.711Z,101919.34
2022-10-28T23:30:17.294Z,101920.97
2022-10-28T23:32:43.983Z,101929.00
2022-10-28T23:35:10.406Z,101931.19
2022-10-28T23:37:36.867Z,101920.47
2022-10-28T23:40:05.066Z,101925.00
2022-10-28T23:42:31.627Z,101913.16
2022-10-28T23:44:58.077Z,101916.34
2022-10-28T23:47:24.584Z,101917.28
2022-10-28T23:49:50.999Z,101917.16
2022-10-28T23:52:17.511Z,101922.47
2022-10-28T23:54:44.086Z,101916.09
2022-10-28T23:57:15.886Z,101932.84
2022-10-28T23:59:42.381Z,101930.31
